Time;durP1;ratioP1;P1;durP2;ratioP2;P2;SDS_P1;SDS_P2;PMS_P1;PMS_P2;Temp;Humidity;BMP_temperature;BMP_pressure;BME280_temperature;BME280_humidity;BME280_pressure;Samples;Min_cycle;Max_cycle;Signal;HPM_P1;HPM_P2
2023/03/04 09:23:50;;;;;;;2.03;0.77;;;;;;;;;;5012673;27;20426;-69
2023/03/04 09:26:20;;;;;;;3.50;1.15;;;;;;;;;;4959807;28;20073;-70
2023/03/04 09:28:51;;;;;;;2.22;1.02;;;;;;;;;;4952742;28;20046;-67
2023/03/04 09:31:24;;;;;;;2.63;0.93;;;;;;;;;;4953103;28;20057;-70
2023/03/04 09:33:53;;;;;;;2.50;0.88;;;;;;;;;;4930388;28;20122;-69
2023/03/04 09:36:40;;;;;;;3.17;0.95;;;;;;;;;;4919676;28;21207;-68
2023/03/04 09:39:10;;;;;;;3.45;0.82;;;;;;;;;;4882749;28;20146;-67
2023/03/04 09:41:40;;;;;;;3.13;0.98;;;;;;;;;;4933556;28;20074;-71
2023/03/04 09:44:13;;;;;;;2.70;1.20;;;;;;;;;;4917636;28;20057;-70
2023/03/04 09:46:45;;;;;;;6.18;1.05;;;;;;;;;;4959197;28;20054;-73
2023/03/04 09:49:11;;;;;;;;;;;;;;;;;;4985409;28;20058;-71
2023/03/04 09:51:44;;;;;;;2.70;0.70;;;;;;;;;;4974157;28;19932;-69
2023/03/04 09:54:17;;;;;;;3.33;1.05;;;;;;;;;;4932484;28;20113;-71
2023/03/04 09:56:45;;;;;;;2.72;0.80;;;;;;;;;;4961526;28;20050;-71
2023/03/04 09:59:17;;;;;;;3.53;1.20;;;;;;;;;;4954526;28;20164;-69
2023/03/04 10:01:47;;;;;;;2.42;0.80;;;;;;;;;;4952349;28;20050;-70
2023/03/04 10:04:17;;;;;;;4.55;1.23;;;;;;;;;;4929218;28;20054;-72
2023/03/04 10:07:00;;;;;;;4.25;0.93;;;;;;;;;;4966244;28;20126;-70
2023/03/04 10:09:35;;;;;;;5.60;1.00;;;;;;;;;;4975459;28;20791;-69
2023/03/04 10:12:02;;;;;;;1.52;0.80;;;;;;;;;;4984418;28;20053;-70
2023/03/04 10:14:37;;;;;;;2.42;0.80;;;;;;;;;;4955533;28;20057;-69
2023/03/04 10:17:13;;;;;;;2.40;0.90;;;;;;;;;;4937539;28;20066;-67
2023/03/04 10:19:52;;;;;;;3.03;0.90;;;;;;;;;;4970154;28;20050;-73
2023/03/04 10:22:21;;;;;;;2.17;0.80;;;;;;;;;;4969069;28;20050;-67
2023/03/04 10:24:57;;;;;;;2.42;0.70;;;;;;;;;;4933281;28;20061;-71
2023/03/04 10:27:24;;;;;;;1.98;0.70;;;;;;;;;;4939909;28;20112;-72
2023/03/04 10:29:51;;;;;;;3.33;0.57;;;;;;;;;;4961313;28;20154;-69
2023/03/04 10:32:18;;;;;;;4.78;0.75;;;;;;;;;;4970708;28;20057;-65
2023/03/04 10:34:45;;;;;;;1.73;0.68;;;;;;;;;;4965248;28;20078;-71
2023/03/04 10:37:15;;;;;;;5.63;0.85;;;;;;;;;;4960792;28;20132;-71
2023/03/04 10:39:44;;;;;;;4.15;0.90;;;;;;;;;;4973732;28;20059;-74
2023/03/04 10:42:35;;;;;;;0.98;0.60;;;;;;;;;;4954962;28;20128;-66
2023/03/04 10:45:12;;;;;;;;;;;;;;;;;;;;;
2023/03/04 10:47:41;;;;;;;2.05;0.93;;;;;;;;;;4975401;28;20084;-73
2023/03/04 10:50:22;;;;;;;2.15;0.88;;;;;;;;;;4973988;28;20389;-68
2023/03/04 10:52:51;;;;;;;4.53;1.20;;;;;;;;;;4963244;28;20054;-72
2023/03/04 10:55:23;;;;;;;1.25;0.75;;;;;;;;;;4919719;28;20132;-68
2023/03/04 10:58:02;;;;;;;4.50;0.80;;;;;;;;;;4984523;28;20054;-65
2023/03/04 11:00:30;;;;;;;1.40;0.65;;;;;;;;;;4973214;28;20060;-68
2023/03/04 11:03:16;;;;;;;2.88;0.90;;;;;;;;;;4935490;28;20054;-72
2023/03/04 11:05:42;;;;;;;4.25;1.45;;;;;;;;;;4929255;28;20057;-71
2023/03/04 11:08:18;;;;;;;2.45;0.70;;;;;;;;;;4955214;28;20149;-69
2023/03/04 11:10:45;;;;;;;1.45;0.70;;;;;;;;;;4938084;28;20050;-70
2023/03/04 11:13:17;;;;;;;2.22;0.60;;;;;;;;;;4959796;28;20116;-73
2023/03/04 11:15:51;;;;;;;2.13;1.00;;;;;;;;;;4956699;28;20059;-73
2023/03/04 11:18:19;;;;;;;2.70;0.95;;;;;;;;;;4972182;28;20054;-71
2023/03/04 11:20:49;;;;;;;0.90;0.60;;;;;;;;;;4958982;28;20062;-70
2023/03/04 11:23:17;;;;;;;1.98;0.80;;;;;;;;;;4965457;28;20062;-68
2023/03/04 11:25:45;;;;;;;2.72;0.68;;;;;;;;;;4926176;28;20051;-67
2023/03/04 11:28:21;;;;;;;1.85;0.82;;;;;;;;;;4961400;28;20109;-71
2023/03/04 11:30:51;;;;;;;2.53;0.98;;;;;;;;;;4970910;28;20097;-72
2023/03/04 11:33:27;;;;;;;3.33;0.88;;;;;;;;;;4937931;28;20187;-72
2023/03/04 11:35:59;;;;;;;2.97;0.80;;;;;;;;;;4943605;28;20077;-70
2023/03/04 11:38:32;;;;;;;4.22;1.10;;;;;;;;;;4946101;28;20088;-70
2023/03/04 11:41:03;;;;;;;4.15;1.10;;;;;;;;;;4976994;28;20054;-72
2023/03/04 11:43:35;;;;;;;3.33;0.77;;;;;;;;;;4967823;28;20331;-70
2023/03/04 11:46:10;;;;;;;1.92;1.05;;;;;;;;;;4949110;28;20124;-73
2023/03/04 11:48:48;;;;;;;1.80;0.75;;;;;;;;;;4967747;28;20046;-71
2023/03/04 11:51:19;;;;;;;1.88;0.80;;;;;;;;;;4940215;28;20051;-70
2023/03/04 11:53:52;;;;;;;4.78;0.98;;;;;;;;;;4941271;28;20058;-69
2023/03/04 11:56:27;;;;;;;2.15;0.82;;;;;;;;;;4892657;28;20091;-68
2023/03/04 11:59:15;;;;;;;3.80;1.08;;;;;;;;;;4926635;28;20117;-68
2023/03/04 12:01:53;;;;;;;1.97;0.80;;;;;;;;;;4911415;28;20059;-67
2023/03/04 12:04:31;;;;;;;2.55;0.90;;;;;;;;;;4916343;28;20298;-69
2023/03/04 12:07:20;;;;;;;2.25;1.10;;;;;;;;;;4919267;28;20054;-68
2023/03/04 12:10:02;;;;;;;3.75;0.90;;;;;;;;;;4980102;28;20058;-68
2023/03/04 12:12:45;;;;;;;2.45;0.88;;;;;;;;;;4952018;28;20050;-69
2023/03/04 12:15:20;;;;;;;2.08;1.05;;;;;;;;;;4892783;28;20050;-69
2023/03/04 12:18:07;;;;;;;3.73;1.00;;;;;;;;;;4937006;28;20110;-68
2023/03/04 12:21:01;;;;;;;4.30;0.90;;;;;;;;;;4965724;28;20077;-69
2023/03/04 12:24:00;;;;;;;1.65;0.88;;;;;;;;;;4950987;28;20054;-69
2023/03/04 12:26:39;;;;;;;3.15;1.00;;;;;;;;;;4954098;28;20085;-69
2023/03/04 12:29:37;;;;;;;4.13;1.10;;;;;;;;;;4950797;28;20197;-68
2023/03/04 12:32:27;;;;;;;5.18;1.45;;;;;;;;;;4943446;28;20057;-69
2023/03/04 13:01:14;;;;;;;4.45;0.90;;;;;;;;;;4986711;27;20139;-71
2023/03/04 13:03:52;;;;;;;6.20;0.90;;;;;;;;;;4979178;28;20053;-71
2023/03/04 13:06:28;;;;;;;2.92;0.95;;;;;;;;;;4928721;28;20057;-71
2023/03/04 13:09:03;;;;;;;3.55;0.90;;;;;;;;;;4947628;28;20058;-70
2023/03/04 13:11:46;;;;;;;2.75;0.80;;;;;;;;;;4918690;28;20058;-71
2023/03/04 13:14:28;;;;;;;3.97;0.73;;;;;;;;;;4949282;28;20361;-72
2023/03/04 13:17:27;;;;;;;1.30;0.60;;;;;;;;;;4891668;28;20077;-72
2023/03/04 13:20:09;;;;;;;;;;;;;;;;;;;;;
2023/03/04 13:22:49;;;;;;;4.38;1.02;;;;;;;;;;4948653;28;20370;-71
2023/03/04 13:25:49;;;;;;;4.45;1.23;;;;;;;;;;4899294;28;20055;-71
2023/03/04 13:28:21;;;;;;;11.88;1.98;;;;;;;;;;4928849;28;20156;-70
2023/03/04 13:31:09;;;;;;;4.35;1.65;;;;;;;;;;4920813;28;20062;-70
2023/03/04 13:34:00;;;;;;;5.75;1.17;;;;;;;;;;4934443;28;20071;-70
2023/03/04 13:36:56;;;;;;;7.20;1.17;;;;;;;;;;4949683;28;20057;-71
2023/03/04 13:39:42;;;;;;;2.90;1.02;;;;;;;;;;4983485;28;20049;-71
2023/03/04 13:42:37;;;;;;;2.20;0.75;;;;;;;;;;5005211;28;20073;-71
2023/03/04 13:45:08;;;;;;;4.03;1.10;;;;;;;;;;4988147;28;20075;-71
2023/03/04 13:47:46;;;;;;;2.33;0.60;;;;;;;;;;4975968;28;20053;-72
2023/03/04 13:50:32;;;;;;;3.38;1.10;;;;;;;;;;4925750;28;20061;-71
2023/03/04 13:53:24;;;;;;;5.38;0.88;;;;;;;;;;4934093;28;20055;-71
2023/03/04 13:56:09;;;;;;;1.48;0.52;;;;;;;;;;4903257;28;20061;-70
2023/03/04 13:58:38;;;;;;;3.13;0.73;;;;;;;;;;4969784;28;20059;-70
2023/03/04 14:01:08;;;;;;;5.82;0.90;;;;;;;;;;4952082;28;20049;-71
2023/03/04 14:03:38;;;;;;;6.75;0.70;;;;;;;;;;4964022;28;20054;-71
2023/03/04 14:24:18;;;;;;;3.95;0.70;;;;;;;;;;6148281;22;1702159;-70
2023/03/04 14:26:55;;;;;;;3.45;1.02;;;;;;;;;;6154872;22;20167;-70
2023/03/04 14:29:24;;;;;;;3.42;0.73;;;;;;;;;;6098839;23;20306;-69
2023/03/04 14:31:53;;;;;;;4.85;0.80;;;;;;;;;;6098275;23;20113;-69
2023/03/04 14:34:35;;;;;;;3.85;0.82;;;;;;;;;;6139110;23;20029;-70
2023/03/04 14:37:04;;;;;;;1.58;0.75;;;;;;;;;;6086041;23;20170;-70
2023/03/04 14:39:35;;;;;;;4.38;1.05;;;;;;;;;;6129187;23;20133;-70
2023/03/04 14:42:31;;;;;;;;;;;;;;;;;;;;;
2023/03/04 14:45:00;;;;;;;4.40;0.82;;;;;;;;;;6090541;23;20584;-68
2023/03/04 14:47:30;;;;;;;1.90;0.80;;;;;;;;;;6135788;23;20032;-70
2023/03/04 14:50:13;;;;;;;5.65;1.13;;;;;;;;;;6179755;23;20109;-69
2023/03/04 14:52:41;;;;;;;2.20;0.70;;;;;;;;;;6220268;22;20019;-68
2023/03/04 14:55:27;;;;;;;5.72;0.80;;;;;;;;;;6210843;22;20031;-70
2023/03/04 14:57:58;;;;;;;;;;;;;;;;;;6188152;22;20139;-69
2023/03/04 15:00:32;;;;;;;2.38;0.60;;;;;;;;;;6297373;22;19918;-71
2023/03/04 15:03:03;;;;;;;1.00;0.55;;;;;;;;;;6295785;22;20053;-70
2023/03/04 15:05:30;;;;;;;3.20;0.55;;;;;;;;;;6277982;22;20033;-70
2023/03/04 15:07:59;;;;;;;3.00;0.80;;;;;;;;;;6293179;22;20023;-69
2023/03/04 15:10:26;;;;;;;4.40;0.77;;;;;;;;;;6286832;22;20034;-69
2023/03/04 15:12:54;;;;;;;3.00;0.63;;;;;;;;;;6294032;22;20026;-68
2023/03/04 15:15:39;;;;;;;2.13;0.57;;;;;;;;;;6261551;22;20037;-70
2023/03/04 15:18:17;;;;;;;3.17;0.60;;;;;;;;;;6288062;22;20029;-70
2023/03/04 15:20:52;;;;;;;2.67;0.80;;;;;;;;;;6326034;22;20015;-70
2023/03/04 15:23:19;;;;;;;4.10;0.68;;;;;;;;;;6281072;22;20468;-70
2023/03/04 15:25:45;;;;;;;3.03;0.75;;;;;;;;;;6272978;22;20025;-69
2023/03/04 15:28:16;;;;;;;3.15;0.70;;;;;;;;;;6266787;22;20060;-70
2023/03/04 15:30:44;;;;;;;2.50;0.63;;;;;;;;;;6289937;22;20019;-69
2023/03/04 15:33:10;;;;;;;1.70;0.75;;;;;;;;;;6284294;22;20023;-69
2023/03/04 15:35:37;;;;;;;5.28;0.85;;;;;;;;;;6287530;22;20026;-69
2023/03/04 15:38:05;;;;;;;1.80;0.73;;;;;;;;;;6287188;22;20025;-69
2023/03/04 15:40:34;;;;;;;3.30;0.60;;;;;;;;;;6301034;22;20039;-69
2023/03/04 15:43:03;;;;;;;1.52;0.40;;;;;;;;;;6288898;22;20118;-70
2023/03/04 15:45:35;;;;;;;2.00;0.45;;;;;;;;;;6287930;22;20030;-68
2023/03/04 15:48:06;;;;;;;1.77;0.52;;;;;;;;;;6259281;22;20019;-69
2023/03/04 15:50:34;;;;;;;1.25;0.52;;;;;;;;;;6275463;22;20033;-69
2023/03/04 15:53:10;;;;;;;4.72;0.88;;;;;;;;;;6272702;22;20019;-69
2023/03/04 15:55:37;;;;;;;3.22;0.80;;;;;;;;;;6271010;22;20029;-69
2023/03/04 15:58:04;;;;;;;3.30;0.77;;;;;;;;;;6283508;22;20072;-68
2023/03/04 16:00:31;;;;;;;3.40;0.70;;;;;;;;;;6272802;22;20023;-70
2023/03/04 16:02:57;;;;;;;1.50;0.63;;;;;;;;;;6262801;22;20019;-70
2023/03/04 16:05:30;;;;;;;1.92;0.45;;;;;;;;;;6281284;22;21101;-70
2023/03/04 16:07:59;;;;;;;3.08;0.77;;;;;;;;;;6246543;22;20031;-69
2023/03/04 16:10:29;;;;;;;3.80;0.77;;;;;;;;;;6288730;22;20022;-70
2023/03/04 16:12:56;;;;;;;3.45;0.63;;;;;;;;;;6292109;22;20110;-68
2023/03/04 16:15:24;;;;;;;6.28;0.93;;;;;;;;;;6283445;22;20103;-70
2023/03/04 16:17:51;;;;;;;1.58;0.88;;;;;;;;;;6285004;22;20023;-69
2023/03/04 16:20:19;;;;;;;4.57;0.73;;;;;;;;;;6271567;22;20031;-70
2023/03/04 16:22:51;;;;;;;1.73;0.60;;;;;;;;;;6286514;22;20090;-71
2023/03/04 16:25:22;;;;;;;2.33;0.90;;;;;;;;;;6283245;22;20071;-69
2023/03/04 16:27:56;;;;;;;2.13;0.73;;;;;;;;;;6205298;22;20281;-68
2023/03/04 16:30:27;;;;;;;4.93;0.88;;;;;;;;;;6261505;22;20029;-69
2023/03/04 16:32:54;;;;;;;3.80;0.70;;;;;;;;;;6279111;22;20118;-70
2023/03/04 16:35:23;;;;;;;2.03;0.70;;;;;;;;;;6272310;22;20305;-70
2023/03/04 16:37:52;;;;;;;4.78;0.77;;;;;;;;;;6240363;22;20059;-69
2023/03/04 16:40:23;;;;;;;2.33;0.82;;;;;;;;;;6260321;22;20043;-69
2023/03/04 16:42:50;;;;;;;2.75;0.93;;;;;;;;;;6241619;22;20019;-69
2023/03/04 16:45:19;;;;;;;1.27;0.52;;;;;;;;;;6241766;22;20026;-72
2023/03/04 16:47:47;;;;;;;1.63;0.63;;;;;;;;;;6158250;22;20036;-71
2023/03/04 16:50:16;;;;;;;5.30;0.70;;;;;;;;;;6123636;23;20173;-73
2023/03/04 16:52:45;;;;;;;2.80;0.85;;;;;;;;;;6132068;23;20098;-74
2023/03/04 16:55:18;;;;;;;1.67;0.70;;;;;;;;;;6156594;22;20031;-73
2023/03/04 16:57:45;;;;;;;5.40;0.68;;;;;;;;;;6163875;23;20063;-72
2023/03/04 17:00:16;;;;;;;3.25;1.00;;;;;;;;;;6181219;22;20018;-72
2023/03/04 17:02:42;;;;;;;3.28;0.85;;;;;;;;;;6275720;22;20023;-71
2023/03/04 17:05:11;;;;;;;3.03;1.10;;;;;;;;;;6248494;22;20018;-73
2023/03/04 17:07:38;;;;;;;5.72;1.08;;;;;;;;;;6243712;22;20022;-72
2023/03/04 17:10:06;;;;;;;6.43;1.02;;;;;;;;;;6293947;22;20023;-72
2023/03/04 17:12:34;;;;;;;2.80;1.10;;;;;;;;;;6284249;22;20024;-72
2023/03/04 17:15:03;;;;;;;5.05;1.08;;;;;;;;;;6292882;22;20031;-72
2023/03/04 17:17:32;;;;;;;3.83;1.02;;;;;;;;;;6227688;22;20027;-71
2023/03/04 17:20:01;;;;;;;4.50;0.80;;;;;;;;;;6259151;22;20034;-71
2023/03/04 17:22:28;;;;;;;3.70;0.90;;;;;;;;;;6217568;22;20100;-69
2023/03/04 17:24:55;;;;;;;4.75;0.85;;;;;;;;;;6076149;22;20030;-72
2023/03/04 17:27:22;;;;;;;0.95;0.60;;;;;;;;;;6249867;22;20035;-72
2023/03/04 17:29:54;;;;;;;3.22;0.73;;;;;;;;;;6258373;22;20092;-71
2023/03/04 17:32:21;;;;;;;2.33;0.70;;;;;;;;;;6230965;22;20042;-72
2023/03/04 17:34:48;;;;;;;6.97;0.95;;;;;;;;;;6193811;22;20032;-71
2023/03/04 17:37:15;;;;;;;2.53;0.60;;;;;;;;;;6218087;22;20193;-71
2023/03/04 17:39:45;;;;;;;0.93;0.55;;;;;;;;;;6199397;22;20027;-72
2023/03/04 17:42:13;;;;;;;3.60;1.00;;;;;;;;;;6126532;23;20088;-72
2023/03/04 17:49:51;;;;;;;3.22;1.00;;;;;;;;;;5043413;27;20442;-70
2023/03/04 17:52:20;;;;;;;8.00;1.38;;;;;;;;;;5036124;28;20084;-69
2023/03/04 17:54:48;;;;;;;4.20;0.90;;;;;;;;;;5013703;28;20057;-69
2023/03/04 17:57:15;;;;;;;5.85;1.20;;;;;;;;;;4977251;28;20057;-70
2023/03/04 17:59:42;;;;;;;4.60;1.10;;;;;;;;;;5014035;28;20063;-69
2023/03/04 18:02:13;;;;;;;4.60;0.90;;;;;;;;;;5032448;28;20058;-69
2023/03/04 18:04:40;;;;;;;6.05;1.08;;;;;;;;;;5029775;28;20053;-68
2023/03/04 18:07:10;;;;;;;4.35;1.00;;;;;;;;;;4979658;28;20065;-71
2023/03/04 18:09:36;;;;;;;4.07;0.88;;;;;;;;;;5028200;28;20091;-69
2023/03/04 18:12:03;;;;;;;2.20;0.70;;;;;;;;;;5019161;28;20077;-67
2023/03/04 18:14:30;;;;;;;5.40;1.23;;;;;;;;;;5021688;28;20049;-69
2023/03/04 18:16:56;;;;;;;3.97;1.00;;;;;;;;;;5016188;28;20052;-68
2023/03/04 18:19:23;;;;;;;4.28;1.20;;;;;;;;;;5008421;28;20369;-67
2023/03/04 18:21:49;;;;;;;5.47;1.00;;;;;;;;;;5027420;28;20119;-69
2023/03/04 18:24:18;;;;;;;1.50;0.73;;;;;;;;;;4995713;28;20053;-68
2023/03/04 18:26:47;;;;;;;6.38;1.00;;;;;;;;;;5041890;28;20072;-68
2023/03/04 18:29:16;;;;;;;6.53;1.15;;;;;;;;;;5017024;28;20115;-69
2023/03/04 18:31:47;;;;;;;5.10;1.10;;;;;;;;;;5045713;28;20117;-69
2023/03/04 18:34:13;;;;;;;7.07;0.90;;;;;;;;;;5029887;28;20061;-68
2023/03/04 18:36:43;;;;;;;6.97;1.25;;;;;;;;;;4996268;28;20184;-69
2023/03/04 18:39:12;;;;;;;3.80;1.00;;;;;;;;;;5036211;28;20061;-69
2023/03/04 18:41:41;;;;;;;5.32;1.02;;;;;;;;;;5028703;28;20049;-69
2023/03/04 18:44:08;;;;;;;3.55;0.93;;;;;;;;;;5023227;28;20057;-69
2023/03/04 18:46:40;;;;;;;4.63;1.17;;;;;;;;;;4993760;28;20053;-69
2023/03/04 18:49:09;;;;;;;3.20;1.10;;;;;;;;;;4996293;28;20068;-69
2023/03/04 18:51:35;;;;;;;4.75;1.10;;;;;;;;;;5029955;28;20061;-70
2023/03/04 18:54:24;;;;;;;4.00;1.00;;;;;;;;;;5015520;28;20056;-68
2023/03/04 18:57:02;;;;;;;4.43;0.90;;;;;;;;;;5037835;28;20267;-72
2023/03/04 18:59:35;;;;;;;5.38;1.10;;;;;;;;;;5003036;28;20346;-72
2023/03/04 19:02:15;;;;;;;6.03;1.27;;;;;;;;;;5002859;28;20065;-67
2023/03/04 19:04:47;;;;;;;4.68;1.00;;;;;;;;;;4999315;28;20069;-69
2023/03/04 19:10:11;;;;;;;4.30;0.85;;;;;;;;;;4974192;28;20057;-69
2023/03/04 19:12:43;;;;;;;7.63;1.20;;;;;;;;;;4960700;28;20051;-70
2023/03/04 19:15:11;;;;;;;6.43;1.05;;;;;;;;;;4954104;28;20172;-69
2023/03/04 19:17:44;;;;;;;7.72;1.73;;;;;;;;;;4978212;28;20062;-69
2023/03/04 19:20:28;;;;;;;4.82;1.20;;;;;;;;;;4962452;28;20058;-68
2023/03/04 19:22:54;;;;;;;5.30;0.90;;;;;;;;;;5022223;28;20102;-68
2023/03/04 19:25:24;;;;;;;5.93;1.15;;;;;;;;;;5009915;28;20053;-69
2023/03/04 19:30:51;;;;;;;7.25;0.77;;;;;;;;;;5022042;28;20153;-72
2023/03/04 19:33:18;;;;;;;4.93;0.90;;;;;;;;;;5014631;28;20052;-71
2023/03/04 19:35:47;;;;;;;4.53;0.98;;;;;;;;;;5023217;28;20164;-69
2023/03/04 19:38:14;;;;;;;4.97;1.10;;;;;;;;;;5016340;28;20052;-70
2023/03/04 19:40:45;;;;;;;7.75;1.10;;;;;;;;;;5017814;28;20057;-70
2023/03/04 19:43:24;;;;;;;8.90;1.20;;;;;;;;;;5018982;28;20057;-68
2023/03/04 19:45:50;;;;;;;;;;;;;;;;;;5015034;28;20059;-69
2023/03/04 19:48:18;;;;;;;3.60;0.60;;;;;;;;;;5017007;28;19948;-71
2023/03/04 19:50:44;;;;;;;4.00;1.08;;;;;;;;;;5030879;28;20496;-71
2023/03/04 19:53:18;;;;;;;4.15;1.17;;;;;;;;;;5004509;28;20060;-70
2023/03/04 19:55:52;;;;;;;5.40;1.00;;;;;;;;;;5009999;28;20056;-71
2023/03/04 19:58:23;;;;;;;3.70;1.33;;;;;;;;;;5010576;28;20119;-71
2023/03/04 20:00:54;;;;;;;6.25;1.42;;;;;;;;;;4990164;28;20273;-71
2023/03/04 20:03:25;;;;;;;4.72;1.20;;;;;;;;;;4999652;28;20211;-69
2023/03/04 20:05:52;;;;;;;4.78;1.00;;;;;;;;;;5000758;28;20064;-69
2023/03/04 20:08:21;;;;;;;2.92;0.88;;;;;;;;;;4956528;28;20049;-70
2023/03/04 20:10:58;;;;;;;5.00;1.10;;;;;;;;;;4995823;28;20134;-71
2023/03/04 20:13:45;;;;;;;4.82;1.10;;;;;;;;;;5036678;28;20079;-71
2023/03/04 20:16:23;;;;;;;8.13;1.52;;;;;;;;;;4996504;28;20346;-70
2023/03/04 20:18:55;;;;;;;;;;;;;;;;;;4968619;28;20459;-71
2023/03/04 20:21:23;;;;;;;6.25;1.10;;;;;;;;;;4979093;28;19925;-71
2023/03/04 20:24:01;;;;;;;3.45;1.10;;;;;;;;;;5033926;28;20098;-70
2023/03/04 20:26:28;;;;;;;3.47;1.15;;;;;;;;;;5007133;28;20064;-70
2023/03/04 20:29:07;;;;;;;3.75;1.15;;;;;;;;;;4982455;28;20096;-69
2023/03/04 20:31:43;;;;;;;4.00;1.00;;;;;;;;;;5010853;28;20168;-69
2023/03/04 20:34:12;;;;;;;3.83;1.02;;;;;;;;;;5001742;28;20050;-70
2023/03/04 20:36:39;;;;;;;3.08;1.23;;;;;;;;;;4998013;28;20081;-69
2023/03/04 20:39:12;;;;;;;6.22;1.73;;;;;;;;;;4962265;28;20065;-69
2023/03/04 20:41:45;;;;;;;11.82;1.30;;;;;;;;;;4995982;28;20053;-70
2023/03/04 20:44:15;;;;;;;4.68;1.30;;;;;;;;;;5013808;28;20048;-72
2023/03/04 20:46:50;;;;;;;6.07;1.50;;;;;;;;;;4994752;28;20623;-71
2023/03/04 20:49:20;;;;;;;3.00;1.15;;;;;;;;;;4961854;28;20058;-71
2023/03/04 20:51:59;;;;;;;5.05;1.30;;;;;;;;;;4978951;28;20053;-72
2023/03/04 20:54:35;;;;;;;4.32;1.50;;;;;;;;;;4969241;28;20050;-71
2023/03/04 20:57:05;;;;;;;4.18;1.35;;;;;;;;;;4953297;28;20100;-72
2023/03/04 20:59:43;;;;;;;5.50;1.30;;;;;;;;;;4978236;28;20088;-70
2023/03/04 21:02:30;;;;;;;4.40;1.20;;;;;;;;;;5011875;28;20053;-70
2023/03/04 21:05:26;;;;;;;5.22;1.27;;;;;;;;;;5014100;28;20061;-69
2023/03/04 21:18:06;;;;;;;3.38;1.23;;;;;;;;;;4844766;29;20059;-71
2023/03/04 21:20:38;;;;;;;4.75;1.10;;;;;;;;;;4903930;28;20055;-72
2023/03/04 21:23:07;;;;;;;4.57;1.20;;;;;;;;;;5231728;22;20075;-72
2023/03/04 21:25:34;;;;;;;;;;;;;;;;;;4945915;28;20060;-72
2023/03/04 21:28:03;;;;;;;5.88;1.35;;;;;;;;;;4922888;28;20037;-72
2023/03/04 21:36:01;;;;;;;4.70;1.30;;;;;;;;;;1009555;22;20630;-70
2023/03/04 21:38:30;;;;;;;4.70;1.52;;;;;;;;;;4984332;28;20053;-70
2023/03/04 21:40:56;;;;;;;5.28;1.08;;;;;;;;;;5025321;28;20049;-71
2023/03/04 21:43:23;;;;;;;6.90;1.50;;;;;;;;;;4993259;28;20053;-70
2023/03/04 21:45:54;;;;;;;5.07;1.55;;;;;;;;;;4994890;28;20139;-71
2023/03/04 21:48:21;;;;;;;4.53;1.50;;;;;;;;;;5045418;28;20045;-70
2023/03/04 21:50:48;;;;;;;4.13;1.10;;;;;;;;;;5031886;28;20242;-70
2023/03/04 21:53:20;;;;;;;5.10;1.38;;;;;;;;;;5012748;28;20068;-71
2023/03/04 21:55:48;;;;;;;5.20;1.60;;;;;;;;;;5050882;28;20049;-70
2023/03/04 21:58:15;;;;;;;7.22;1.58;;;;;;;;;;5022361;28;20061;-71
2023/03/04 22:00:42;;;;;;;3.58;1.27;;;;;;;;;;4992192;28;20056;-72
2023/03/04 22:03:09;;;;;;;1.83;1.00;;;;;;;;;;4984161;28;20057;-71
2023/03/04 22:05:39;;;;;;;4.97;1.17;;;;;;;;;;5027324;28;20054;-69
2023/03/04 22:08:06;;;;;;;5.03;1.23;;;;;;;;;;5030103;28;20091;-70
2023/03/04 22:10:32;;;;;;;3.58;1.45;;;;;;;;;;5010647;28;20132;-72
2023/03/04 22:13:07;;;;;;;7.55;1.50;;;;;;;;;;5032567;28;20057;-72
2023/03/04 22:15:35;;;;;;;5.35;1.25;;;;;;;;;;5015279;28;20056;-71
2023/03/04 22:18:02;;;;;;;2.58;1.10;;;;;;;;;;4980682;28;20078;-72
2023/03/04 22:20:29;;;;;;;2.00;0.90;;;;;;;;;;4971513;28;20145;-71
2023/03/04 22:27:46;;;;;;;2.72;0.90;;;;;;;;;;4858749;28;20042;-71
2023/03/04 22:32:40;;;;;;;5.70;1.10;;;;;;;;;;4911380;28;20078;-72
2023/03/04 22:35:08;;;;;;;3.78;1.33;;;;;;;;;;4958078;28;20488;-71
2023/03/04 22:37:35;;;;;;;5.05;1.60;;;;;;;;;;4947938;28;20082;-72
2023/03/04 22:40:02;;;;;;;6.53;1.52;;;;;;;;;;4969482;28;20077;-70
2023/03/04 22:42:28;;;;;;;2.83;1.05;;;;;;;;;;4992800;28;20060;-69
2023/03/04 22:44:55;;;;;;;6.70;1.80;;;;;;;;;;4997794;28;20100;-70
2023/03/04 22:47:22;;;;;;;3.70;1.17;;;;;;;;;;5029878;28;20061;-70
2023/03/04 22:49:50;;;;;;;3.13;1.17;;;;;;;;;;4998458;28;20171;-70
2023/03/04 22:52:17;;;;;;;5.38;1.70;;;;;;;;;;5017358;28;20068;-70
2023/03/04 22:54:43;;;;;;;5.00;1.30;;;;;;;;;;5015249;28;20046;-70
2023/03/04 22:57:12;;;;;;;4.65;1.27;;;;;;;;;;5010899;28;20640;-70
2023/03/04 22:59:38;;;;;;;;;;;;;;;;;;4988488;28;20067;-69
2023/03/04 23:02:05;;;;;;;3.58;1.13;;;;;;;;;;5007622;28;20875;-70
2023/03/04 23:04:32;;;;;;;6.18;1.40;;;;;;;;;;5026641;28;20064;-69
2023/03/04 23:07:00;;;;;;;3.50;1.13;;;;;;;;;;5030403;28;20156;-70
2023/03/04 23:12:29;;;;;;;3.42;1.23;;;;;;;;;;4974344;28;20058;-69
2023/03/04 23:14:59;;;;;;;3.28;1.02;;;;;;;;;;4986736;28;20088;-71
2023/03/04 23:17:27;;;;;;;6.68;1.60;;;;;;;;;;5004606;28;20121;-72
2023/03/04 23:19:53;;;;;;;3.42;1.20;;;;;;;;;;4997570;28;20053;-70
2023/03/04 23:25:42;;;;;;;4.45;1.35;;;;;;;;;;4903701;28;20066;-71
2023/03/04 23:28:09;;;;;;;6.03;1.33;;;;;;;;;;4991457;28;20120;-68
2023/03/04 23:30:36;;;;;;;3.72;1.25;;;;;;;;;;5018980;28;20057;-69
2023/03/04 23:33:04;;;;;;;4.72;1.25;;;;;;;;;;4997223;28;20054;-70
2023/03/04 23:35:31;;;;;;;5.32;1.33;;;;;;;;;;4986031;28;20469;-69
2023/03/04 23:37:58;;;;;;;4.32;1.95;;;;;;;;;;4995986;28;20157;-70
2023/03/04 23:40:24;;;;;;;5.20;1.48;;;;;;;;;;4990693;28;20065;-70
2023/03/04 23:42:53;;;;;;;4.82;1.33;;;;;;;;;;5002026;28;20053;-71
2023/03/04 23:45:19;;;;;;;5.72;1.65;;;;;;;;;;4991027;28;20094;-70
2023/03/04 23:47:46;;;;;;;5.90;1.50;;;;;;;;;;4989955;28;20057;-70
2023/03/04 23:50:14;;;;;;;6.38;1.65;;;;;;;;;;4963829;28;21132;-69
2023/03/04 23:52:41;;;;;;;6.60;1.23;;;;;;;;;;5016476;28;20113;-69
2023/03/04 23:55:11;;;;;;;4.63;1.30;;;;;;;;;;4990424;28;20049;-70
2023/03/04 23:57:51;;;;;;;5.95;1.45;;;;;;;;;;4985133;28;20057;-70
